• Join FlightAware (Why Join?)
  • Login
  • US Flag 
 
07:33PM EST


 

Airport Tracker/Info


-or-


 

Live Flight TrackerFlight Track Log ✈ AUB1994 ✈ 25-Sep-2013 ✈ EDDM / MUC - EDDK / CGN

Flight Track Log - Related Links

Times and Time Zones

All times are in EDT time to prevent confusion due to time zone crossing. See the AUB1994 flight status page for this flight to view local times or setup timezone preferences in your user account.

Time Position Orientation Groundspeed Altitude Reporting Facility
EDT Latitude Longitude Course Direction KTS MPH feet Rate Location/Type
01:17PM 48.6198 11.3316 312° West  Level Estimated
01:18PM 48.6860 11.2172 311° West  Level Estimated
01:19PM 48.7521 11.1025 311° West  Level Estimated
01:20PM 48.8180 10.9875 311° West  Level Estimated
01:21PM 48.8839 10.8723 311° West  Level Estimated
01:22PM 48.9497 10.7567 311° West  Level Estimated
01:23PM 49.0153 10.6408 311° West  Level Estimated
01:24PM 49.0808 10.5246 311° West  Level Estimated
01:25PM 49.1462 10.4081 311° West  Level Estimated
01:26PM 49.2115 10.2913 311° West  Level Estimated
01:27PM 49.2767 10.1742 310° West  Level Estimated
01:28PM 49.3417 10.0568 310° West  Level Estimated
01:29PM 49.4067 9.9390 310° West  Level Estimated
01:30PM 49.4715 9.8210 310° West  Level Estimated
01:31PM 49.5362 9.7026 310° West  Level Estimated
01:32PM 49.6007 9.5839 310° West  Level Estimated
01:33PM 49.6652 9.4649 310° West  Level Estimated
01:34PM 49.7295 9.3456 310° West  Level Estimated
01:35PM 49.7937 9.2260 310° West  Level Estimated
01:36PM 49.8578 9.1061 310° West  Level Estimated
01:37PM 49.9217 8.9858 310° West  Level Estimated
01:38PM 49.9856 8.8652 309° West  Level Estimated
01:39PM 50.0493 8.7443 309° West  Level Estimated
01:40PM 50.1128 8.6231 309° West  Level Estimated
01:41PM 50.1763 8.5016 309° West  Level Estimated
01:42PM 50.2396 8.3797 309° West  Level Estimated
01:43PM 50.3028 8.2575 309° West  Level Estimated
01:44PM 50.3659 8.1350 309° West  Level Estimated
01:45PM 50.4288 8.0122 309° West  Level Estimated
01:46PM 50.4916 7.8890 309° West  Level Estimated
01:47PM 50.5543 7.7655 309° West  Level Estimated
01:48PM 50.6169 7.6417 309° West  Level Estimated
01:49PM 50.6793 7.5175 308° West  Level Estimated
01:50PM 50.7416 7.3931 308° West  Level Estimated
01:51PM 50.8037 7.2683 308° West  Level Estimated
01:52PM 50.8657 7.1431 308° West  Level Estimated
01:53PM 50.8659 7.1427 308° West  Level Estimated
01:54PM 50.8659 7.1427 140° Southeast  Level Estimated
01:55PM 50.8659 7.1427 140° Southeast  Level Estimated
01:56PM 50.8659 7.1427 140° Southeast  Level Estimated
01:57PM 50.8659 7.1427 140° Southeast  Level Estimated
01:58PM 50.8659 7.1427 140° Southeast  Level Estimated
01:59PM 50.8659 7.1427 140° Southeast  Level Estimated
02:00PM 50.8659 7.1427 140° Southeast  Level Estimated
02:01PM 50.8659 7.1427 140° Southeast  Level Estimated
02:02PM 50.8659 7.1427 140° Southeast  Level Estimated
02:03PM 50.8659 7.1427 140° Southeast  Level Estimated
02:04PM 50.8659 7.1427 140° Southeast  Level Estimated
02:05PM 50.8659 7.1427 140° Southeast  Level Estimated
02:06PM 50.8659 7.1427 140° Southeast  Level Estimated
02:07PM 50.8659 7.1427 140° Southeast  Level Estimated
02:08PM 50.8659 7.1427 140° Southeast  Level Estimated